createdAt,value
2022-08-26T00:01:55.544Z,27.53
2022-08-26T00:04:25.353Z,27.76
2022-08-26T00:06:56.624Z,27.47
2022-08-26T00:09:25.253Z,27.21
2022-08-26T00:11:53.474Z,27.39
2022-08-26T00:14:21.687Z,26.52
2022-08-26T00:16:49.002Z,26.66
2022-08-26T00:19:20.408Z,26.87
2022-08-26T00:21:48.731Z,26.95
2022-08-26T00:24:18.192Z,27.26
2022-08-26T00:26:45.537Z,26.69
2022-08-26T00:29:13.751Z,26.16
2022-08-26T00:31:42.700Z,25.90
2022-08-26T00:34:12.388Z,26.06
2022-08-26T00:36:40.935Z,26.13
2022-08-26T00:39:08.373Z,26.44
2022-08-26T00:41:38.687Z,26.84
2022-08-26T00:44:05.991Z,26.98
2022-08-26T00:46:36.962Z,26.87
2022-08-26T00:49:11.693Z,26.97
2022-08-26T00:51:56.322Z,27.03
2022-08-26T00:54:27.313Z,27.04
2022-08-26T00:57:02.505Z,26.90
2022-08-26T00:59:33.158Z,27.20
2022-08-26T01:02:02.950Z,27.10
2022-08-26T01:04:33.515Z,27.19
2022-08-26T01:07:00.999Z,27.00
2022-08-26T01:09:28.324Z,27.01
2022-08-26T01:11:59.168Z,26.96
2022-08-26T01:14:29.976Z,27.05
2022-08-26T01:16:57.146Z,27.02
2022-08-26T01:19:31.130Z,26.96
2022-08-26T01:22:14.255Z,27.16
2022-08-26T01:24:41.776Z,27.13
2022-08-26T01:27:12.524Z,27.28
2022-08-26T01:29:42.774Z,27.13
2022-08-26T01:32:14.551Z,27.21
2022-08-26T01:34:41.707Z,26.97
2022-08-26T01:37:17.095Z,26.19
2022-08-26T01:39:48.861Z,26.60
2022-08-26T01:42:17.737Z,26.98
2022-08-26T01:44:54.095Z,26.82
2022-08-26T01:47:24.311Z,26.74
2022-08-26T01:49:54.535Z,27.17
2022-08-26T01:52:28.656Z,27.12
2022-08-26T01:54:58.921Z,26.90
2022-08-26T01:57:26.681Z,27.14
2022-08-26T01:59:58.460Z,27.18
2022-08-26T02:02:26.307Z,27.37
2022-08-26T02:04:59.565Z,27.15
2022-08-26T02:07:27.791Z,27.11
2022-08-26T02:09:55.115Z,27.14
2022-08-26T02:12:22.385Z,27.21
2022-08-26T02:14:55.827Z,27.17
2022-08-26T02:17:44.662Z,26.67
2022-08-26T02:20:15.716Z,26.43
2022-08-26T02:22:45.253Z,26.02
2022-08-26T02:25:25.140Z,26.23
2022-08-26T02:27:52.575Z,26.38
2022-08-26T02:30:24.977Z,26.60
2022-08-26T02:32:54.864Z,26.66
2022-08-26T02:35:23.839Z,26.77
2022-08-26T02:37:52.009Z,26.74
2022-08-26T02:40:25.924Z,26.87
2022-08-26T02:42:55.868Z,26.50
2022-08-26T02:45:24.662Z,26.26
2022-08-26T02:47:52.469Z,26.35
2022-08-26T02:50:20.619Z,26.40
2022-08-26T02:52:48.574Z,26.61
2022-08-26T02:55:16.003Z,26.92
2022-08-26T02:57:45.197Z,26.76
2022-08-26T03:00:14.843Z,26.75
2022-08-26T03:02:41.859Z,26.97
2022-08-26T03:05:09.983Z,26.83
2022-08-26T03:07:37.108Z,26.86
2022-08-26T03:10:08.534Z,26.99
2022-08-26T03:12:36.127Z,26.83
2022-08-26T03:15:03.363Z,26.80
2022-08-26T03:17:46.624Z,26.48
2022-08-26T03:20:15.488Z,26.70
2022-08-26T03:22:42.892Z,26.38
2022-08-26T03:25:12.203Z,26.31
2022-08-26T03:27:39.154Z,26.49
2022-08-26T03:30:25.664Z,26.03
2022-08-26T03:32:53.496Z,25.88
2022-08-26T03:35:20.335Z,25.90
2022-08-26T03:37:49.425Z,25.88
2022-08-26T03:40:16.551Z,25.69
2022-08-26T03:42:47.829Z,25.59
2022-08-26T03:45:17.128Z,26.03
2022-08-26T03:47:44.778Z,26.04
2022-08-26T03:50:15.116Z,26.49
2022-08-26T03:52:44.027Z,26.00
2022-08-26T03:55:11.406Z,26.07
2022-08-26T03:57:38.132Z,26.31
2022-08-26T04:00:08.907Z,26.47
2022-08-26T04:02:35.807Z,26.12
2022-08-26T04:05:02.941Z,26.34
2022-08-26T04:07:31.953Z,26.66
2022-08-26T04:09:59.400Z,26.50
2022-08-26T04:12:26.246Z,26.42
2022-08-26T04:14:53.843Z,26.50
2022-08-26T04:17:25.089Z,26.68
2022-08-26T04:19:53.605Z,26.54
2022-08-26T04:22:24.847Z,26.84
2022-08-26T04:24:52.388Z,26.82
2022-08-26T04:27:19.484Z,26.78
2022-08-26T04:29:47.789Z,26.27
2022-08-26T04:32:16.498Z,26.67
2022-08-26T04:34:43.391Z,26.91
2022-08-26T04:37:12.267Z,27.15
2022-08-26T04:39:39.144Z,26.84
2022-08-26T04:42:06.347Z,27.12
2022-08-26T04:44:35.974Z,27.14
2022-08-26T04:47:04.713Z,27.51
2022-08-26T04:49:35.477Z,27.43
2022-08-26T04:52:04.140Z,27.67
2022-08-26T04:54:31.627Z,27.49
2022-08-26T04:56:59.534Z,27.72
2022-08-26T04:59:26.493Z,28.02
2022-08-26T05:01:57.360Z,27.95
2022-08-26T05:04:24.413Z,28.04
2022-08-26T05:06:54.840Z,27.87
2022-08-26T05:09:25.441Z,27.90
2022-08-26T05:11:52.504Z,27.64
2022-08-26T05:14:23.313Z,28.08
2022-08-26T05:16:50.535Z,28.08
2022-08-26T05:19:18.904Z,27.97
2022-08-26T05:21:47.839Z,27.52
2022-08-26T05:24:15.785Z,27.49
2022-08-26T05:26:44.545Z,27.45
2022-08-26T05:29:11.948Z,27.73
2022-08-26T05:31:38.829Z,27.45
2022-08-26T05:34:05.996Z,27.41
2022-08-26T05:36:36.388Z,27.61
2022-08-26T05:39:05.902Z,27.72
2022-08-26T05:41:36.295Z,27.67
2022-08-26T05:44:08.495Z,27.36
2022-08-26T05:46:37.252Z,27.23
2022-08-26T05:49:06.116Z,27.20
2022-08-26T05:51:42.096Z,27.06
2022-08-26T05:54:10.455Z,27.45
2022-08-26T05:56:38.870Z,27.40
2022-08-26T05:59:06.659Z,27.27
2022-08-26T06:01:42.540Z,27.63
2022-08-26T06:04:10.011Z,27.49
2022-08-26T06:06:41.195Z,27.09
2022-08-26T06:09:10.958Z,27.52
2022-08-26T06:11:38.934Z,27.89
2022-08-26T06:14:07.914Z,27.71
2022-08-26T06:16:38.740Z,27.66
2022-08-26T06:19:11.496Z,27.77
2022-08-26T06:21:40.390Z,27.85
2022-08-26T06:24:30.137Z,27.49
2022-08-26T06:27:01.180Z,28.11
2022-08-26T06:29:30.022Z,27.88
2022-08-26T06:31:58.114Z,27.65
2022-08-26T06:34:30.266Z,27.60
2022-08-26T06:36:59.763Z,27.60
2022-08-26T06:39:30.800Z,28.17
2022-08-26T06:41:59.021Z,28.18
2022-08-26T06:44:27.867Z,28.21
2022-08-26T06:46:55.003Z,28.10
2022-08-26T06:49:26.839Z,28.23
2022-08-26T06:51:59.405Z,28.47
2022-08-26T06:54:32.230Z,28.62
2022-08-26T06:57:00.227Z,28.72
2022-08-26T06:59:27.046Z,28.82
2022-08-26T07:01:54.688Z,28.71
2022-08-26T07:04:23.093Z,28.90
2022-08-26T07:06:52.295Z,28.98
2022-08-26T07:09:21.863Z,28.90
2022-08-26T07:11:49.565Z,29.07
2022-08-26T07:14:19.291Z,29.10
2022-08-26T07:16:49.294Z,29.05
2022-08-26T07:19:29.966Z,28.87
2022-08-26T07:22:03.810Z,28.89
2022-08-26T07:24:33.259Z,28.64
2022-08-26T07:27:05.970Z,28.86
2022-08-26T07:29:34.427Z,28.51
2022-08-26T07:32:01.565Z,28.67
2022-08-26T07:34:29.103Z,29.06
2022-08-26T07:36:57.249Z,28.73
2022-08-26T07:39:26.597Z,27.77
2022-08-26T07:41:54.021Z,28.60
2022-08-26T07:44:21.381Z,28.98
2022-08-26T07:46:52.321Z,28.67
2022-08-26T07:49:25.148Z,28.54
2022-08-26T07:51:54.454Z,28.79
2022-08-26T07:54:27.151Z,29.18
2022-08-26T07:56:55.910Z,29.60
2022-08-26T07:59:23.354Z,28.74
2022-08-26T08:01:50.334Z,29.12
2022-08-26T08:04:20.142Z,29.55
2022-08-26T08:06:52.568Z,29.97
2022-08-26T08:09:19.724Z,28.55
2022-08-26T08:11:49.754Z,28.88
2022-08-26T08:14:18.268Z,29.59
2022-08-26T08:16:51.051Z,30.31
2022-08-26T08:19:21.378Z,30.65
2022-08-26T08:21:48.865Z,30.36
2022-08-26T08:24:16.904Z,30.12
2022-08-26T08:26:43.799Z,30.68
2022-08-26T08:29:10.587Z,30.79
2022-08-26T08:31:56.924Z,31.16
2022-08-26T08:34:26.509Z,31.19
2022-08-26T08:36:54.618Z,30.97
2022-08-26T08:39:22.328Z,30.29
2022-08-26T08:42:25.738Z,30.77
2022-08-26T08:44:55.786Z,31.20
2022-08-26T08:47:35.895Z,31.08
2022-08-26T08:50:17.165Z,31.13
2022-08-26T08:52:49.965Z,31.29
2022-08-26T08:55:18.169Z,31.34
2022-08-26T08:57:45.341Z,31.27
2022-08-26T09:00:18.134Z,31.38
2022-08-26T09:03:03.520Z,31.36
2022-08-26T09:05:40.163Z,31.40
2022-08-26T09:08:23.244Z,31.57
2022-08-26T09:11:00.427Z,31.32
2022-08-26T09:13:29.189Z,31.43
2022-08-26T09:16:20.286Z,31.33
2022-08-26T09:19:05.994Z,30.66
2022-08-26T09:21:33.253Z,31.28
2022-08-26T09:24:00.690Z,31.36
2022-08-26T09:26:39.005Z,31.71
2022-08-26T09:29:14.431Z,31.24
2022-08-26T09:31:41.578Z,31.37
2022-08-26T09:34:21.133Z,31.93
2022-08-26T09:36:59.758Z,31.95
2022-08-26T09:39:37.801Z,32.17
2022-08-26T09:42:10.936Z,32.29
2022-08-26T09:45:08.368Z,32.51
2022-08-26T09:47:57.077Z,32.45
2022-08-26T09:50:36.337Z,32.42
2022-08-26T09:53:28.782Z,32.87
2022-08-26T09:56:17.227Z,32.80
2022-08-26T09:58:47.342Z,33.48
2022-08-26T10:01:32.322Z,33.41
2022-08-26T10:04:20.827Z,33.52
2022-08-26T10:06:59.822Z,33.86
2022-08-26T10:09:28.868Z,33.91
2022-08-26T10:12:06.645Z,33.71
2022-08-26T10:17:30.883Z,33.10
2022-08-26T10:20:26.426Z,33.42
2022-08-26T10:23:11.044Z,33.72
2022-08-26T10:25:49.016Z,34.39
2022-08-26T10:28:37.461Z,35.06
2022-08-26T10:31:16.575Z,34.50
2022-08-26T10:33:47.311Z,34.01
2022-08-26T10:36:52.374Z,34.30
2022-08-26T10:39:26.940Z,34.54
2022-08-26T10:42:01.539Z,34.01
2022-08-26T10:44:33.095Z,34.26
2022-08-26T10:47:12.875Z,34.28
2022-08-26T10:49:42.239Z,34.22
2022-08-26T10:52:17.942Z,33.80
2022-08-26T10:55:21.164Z,33.87
2022-08-26T10:57:57.195Z,33.48
2022-08-26T11:01:01.046Z,33.46
2022-08-26T11:03:43.568Z,34.04
2022-08-26T11:06:19.515Z,34.38
2022-08-26T11:08:50.890Z,34.20
2022-08-26T11:11:38.310Z,34.03
2022-08-26T11:14:46.042Z,34.29
2022-08-26T11:17:46.702Z,34.55
2022-08-26T11:20:22.431Z,34.26
2022-08-26T11:22:52.467Z,34.72
2022-08-26T11:25:30.913Z,34.69
2022-08-26T11:27:59.851Z,34.89
2022-08-26T11:30:58.019Z,34.99
2022-08-26T11:33:43.921Z,34.64
2022-08-26T11:36:28.017Z,34.80
2022-08-26T11:38:55.153Z,34.81
2022-08-26T11:41:24.361Z,34.87
2022-08-26T11:43:52.307Z,35.64
2022-08-26T11:46:28.663Z,35.56
2022-08-26T11:49:06.734Z,35.30
2022-08-26T11:51:40.073Z,34.96
2022-08-26T11:54:11.440Z,35.38
2022-08-26T11:56:40.447Z,35.26
2022-08-26T11:59:11.492Z,35.29
2022-08-26T12:01:43.302Z,35.75
2022-08-26T12:04:17.482Z,35.45
2022-08-26T12:06:51.115Z,35.00
2022-08-26T12:09:30.728Z,34.86
2022-08-26T12:12:12.107Z,35.47
2022-08-26T12:14:39.701Z,35.97
2022-08-26T12:17:30.100Z,35.82
2022-08-26T12:19:57.183Z,35.79
2022-08-26T12:22:27.403Z,35.70
2022-08-26T12:25:00.921Z,35.26
2022-08-26T12:27:53.085Z,35.47
2022-08-26T12:30:26.031Z,35.75
2022-08-26T12:33:19.337Z,35.77
2022-08-26T12:35:54.326Z,35.81
2022-08-26T12:38:26.011Z,35.95
2022-08-26T12:40:53.068Z,35.55
2022-08-26T12:43:49.228Z,34.89
2022-08-26T12:46:24.468Z,34.73
2022-08-26T12:48:51.367Z,34.90
2022-08-26T12:51:29.565Z,35.75
2022-08-26T12:53:58.066Z,35.59
2022-08-26T12:56:24.792Z,35.63
2022-08-26T12:59:26.271Z,35.61
2022-08-26T13:01:56.876Z,36.05
2022-08-26T13:04:46.440Z,35.54
2022-08-26T13:07:27.450Z,35.98
2022-08-26T13:09:57.263Z,36.15
2022-08-26T13:12:37.240Z,36.23
2022-08-26T13:15:06.419Z,36.54
2022-08-26T13:17:35.766Z,36.57
2022-08-26T13:20:04.440Z,36.46
2022-08-26T13:22:32.037Z,37.24
2022-08-26T13:24:58.997Z,37.19
2022-08-26T13:27:27.175Z,37.18
2022-08-26T13:29:57.098Z,36.97
2022-08-26T13:32:27.505Z,37.13
2022-08-26T13:34:56.500Z,37.34
2022-08-26T13:37:34.308Z,37.11
2022-08-26T13:40:06.033Z,36.97
2022-08-26T13:42:32.960Z,36.93
2022-08-26T13:45:01.628Z,37.12
2022-08-26T13:47:28.811Z,37.38
2022-08-26T13:49:56.393Z,37.20
2022-08-26T13:52:30.090Z,37.54
2022-08-26T13:55:00.239Z,37.28
2022-08-26T13:57:29.971Z,37.12
2022-08-26T13:59:59.111Z,37.55
2022-08-26T14:02:27.735Z,37.27
2022-08-26T14:04:55.309Z,36.86
2022-08-26T14:07:22.696Z,37.40
2022-08-26T14:09:49.667Z,36.67
2022-08-26T14:12:16.707Z,37.29
2022-08-26T14:14:43.692Z,36.63
2022-08-26T14:17:14.093Z,37.15
2022-08-26T14:19:45.092Z,37.41
2022-08-26T14:22:13.155Z,37.53
2022-08-26T14:24:39.957Z,37.69
2022-08-26T14:27:06.948Z,37.56
2022-08-26T14:29:33.801Z,37.72
2022-08-26T14:32:07.067Z,37.35
2022-08-26T14:34:33.920Z,36.87
2022-08-26T14:37:07.354Z,37.03
2022-08-26T14:39:35.858Z,37.31
2022-08-26T14:42:04.923Z,36.77
2022-08-26T14:44:33.425Z,37.09
2022-08-26T14:47:02.910Z,37.26
2022-08-26T14:49:31.531Z,37.47
2022-08-26T14:51:58.878Z,37.57
2022-08-26T14:54:26.373Z,37.53
2022-08-26T14:56:59.222Z,37.20
2022-08-26T14:59:49.819Z,37.32
2022-08-26T15:02:32.594Z,37.22
2022-08-26T15:05:02.260Z,37.26
2022-08-26T15:07:29.021Z,37.37
2022-08-26T15:09:56.087Z,37.50
2022-08-26T15:12:24.275Z,37.40
2022-08-26T15:14:51.373Z,36.50
2022-08-26T15:17:18.140Z,36.85
2022-08-26T15:19:44.970Z,36.83
2022-08-26T15:22:11.699Z,36.87
2022-08-26T15:24:38.957Z,36.60
2022-08-26T15:27:05.721Z,37.27
2022-08-26T15:29:33.117Z,37.31
2022-08-26T15:32:03.755Z,36.94
2022-08-26T15:34:31.943Z,36.74
2022-08-26T15:36:58.825Z,36.38
2022-08-26T15:39:26.153Z,36.04
2022-08-26T15:41:52.968Z,35.83
2022-08-26T15:44:19.778Z,36.04
2022-08-26T15:46:49.225Z,35.54
2022-08-26T15:49:18.504Z,35.74
2022-08-26T15:51:47.836Z,35.40
2022-08-26T15:54:16.746Z,35.30
2022-08-26T15:56:44.122Z,34.74
2022-08-26T15:59:11.887Z,35.03
2022-08-26T16:01:39.568Z,35.15
2022-08-26T16:04:06.911Z,35.07
2022-08-26T16:06:36.765Z,34.96
2022-08-26T16:09:04.993Z,34.83
2022-08-26T16:11:31.778Z,34.85
2022-08-26T16:13:58.720Z,34.91
2022-08-26T16:16:26.552Z,34.81
2022-08-26T16:18:53.889Z,34.51
2022-08-26T16:21:27.853Z,34.57
2022-08-26T16:23:56.156Z,34.50
2022-08-26T16:26:28.445Z,34.43
2022-08-26T16:28:55.350Z,34.35
2022-08-26T16:31:22.384Z,34.30
2022-08-26T16:33:49.854Z,34.50
2022-08-26T16:36:17.046Z,34.37
2022-08-26T16:38:55.481Z,34.67
2022-08-26T16:41:25.116Z,34.76
2022-08-26T16:43:52.054Z,34.41
2022-08-26T16:46:19.339Z,34.56
2022-08-26T16:48:48.843Z,34.21
2022-08-26T16:51:18.907Z,34.48
2022-08-26T16:53:47.082Z,34.15
2022-08-26T16:56:20.262Z,34.11
2022-08-26T16:58:48.683Z,34.18
2022-08-26T17:01:16.805Z,33.87
2022-08-26T17:03:43.961Z,33.69
2022-08-26T17:06:11.097Z,33.44
2022-08-26T17:08:39.863Z,33.51
2022-08-26T17:11:08.425Z,33.59
2022-08-26T17:13:36.219Z,33.55
2022-08-26T17:16:05.735Z,33.44
2022-08-26T17:18:33.454Z,33.59
2022-08-26T17:21:06.403Z,33.49
2022-08-26T17:23:33.371Z,33.10
2022-08-26T17:26:00.258Z,33.15
2022-08-26T17:28:27.048Z,33.15
2022-08-26T17:30:57.048Z,33.21
2022-08-26T17:33:25.274Z,32.91
2022-08-26T17:35:53.119Z,32.93
2022-08-26T17:38:21.242Z,33.07
2022-08-26T17:40:48.535Z,32.85
2022-08-26T17:43:15.866Z,32.96
2022-08-26T17:45:43.439Z,32.46
2022-08-26T17:48:11.361Z,32.05
2022-08-26T17:50:42.984Z,31.58
2022-08-26T17:53:18.955Z,31.21
2022-08-26T17:55:48.001Z,31.15
2022-08-26T17:58:16.097Z,31.00
2022-08-26T18:00:49.377Z,31.49
2022-08-26T18:03:16.623Z,31.64
2022-08-26T18:05:48.058Z,31.76
2022-08-26T18:08:14.985Z,31.58
2022-08-26T18:10:43.540Z,31.75
2022-08-26T18:13:13.566Z,31.03
2022-08-26T18:15:41.571Z,30.79
2022-08-26T18:18:08.822Z,30.75
2022-08-26T18:20:38.759Z,30.25
2022-08-26T18:23:05.962Z,29.49
2022-08-26T18:25:33.461Z,29.59
2022-08-26T18:28:03.236Z,30.02
2022-08-26T18:30:31.544Z,30.22
2022-08-26T18:32:58.727Z,29.80
2022-08-26T18:35:28.535Z,29.82
2022-08-26T18:37:58.548Z,30.10
2022-08-26T18:40:39.107Z,29.14
2022-08-26T18:43:05.937Z,28.91
2022-08-26T18:45:32.827Z,28.90
2022-08-26T18:47:59.748Z,28.92
2022-08-26T18:50:26.577Z,29.07
2022-08-26T18:52:53.627Z,28.82
2022-08-26T18:55:20.686Z,28.85
2022-08-26T18:57:47.588Z,29.25
2022-08-26T19:00:14.785Z,29.39
2022-08-26T19:02:41.758Z,29.65
2022-08-26T19:05:14.565Z,29.56
2022-08-26T19:07:43.062Z,29.40
2022-08-26T19:10:12.655Z,29.13
2022-08-26T19:12:39.831Z,28.78
2022-08-26T19:15:07.954Z,28.84
2022-08-26T19:17:34.921Z,28.60
2022-08-26T19:20:04.738Z,28.63
2022-08-26T19:22:31.664Z,28.93
2022-08-26T19:24:58.575Z,28.87
2022-08-26T19:27:25.397Z,28.94
2022-08-26T19:29:52.440Z,28.66
2022-08-26T19:32:24.184Z,28.25
2022-08-26T19:34:52.201Z,28.39
2022-08-26T19:37:20.230Z,28.76
2022-08-26T19:39:47.944Z,28.89
2022-08-26T19:42:14.693Z,29.17
2022-08-26T19:45:00.213Z,28.79
2022-08-26T19:47:27.310Z,28.78
2022-08-26T19:49:55.671Z,28.72
2022-08-26T19:52:24.181Z,28.86
2022-08-26T19:54:57.908Z,28.91
2022-08-26T19:57:24.926Z,28.88
2022-08-26T19:59:52.823Z,29.14
2022-08-26T20:02:20.752Z,28.96
2022-08-26T20:04:47.707Z,28.62
2022-08-26T20:07:18.125Z,28.47
2022-08-26T20:09:46.807Z,28.42
2022-08-26T20:12:14.018Z,28.36
2022-08-26T20:14:41.744Z,28.55
2022-08-26T20:17:08.803Z,27.54
2022-08-26T20:19:54.579Z,27.30
2022-08-26T20:22:22.148Z,28.04
2022-08-26T20:24:49.443Z,28.48
2022-08-26T20:27:16.337Z,28.34
2022-08-26T20:29:43.084Z,28.19
2022-08-26T20:32:11.969Z,28.41
2022-08-26T20:34:40.009Z,28.49
2022-08-26T20:37:08.463Z,28.47
2022-08-26T20:39:35.374Z,28.23
2022-08-26T20:42:03.121Z,28.46
2022-08-26T20:44:30.065Z,28.36
2022-08-26T20:46:57.245Z,28.39
2022-08-26T20:49:23.991Z,27.93
2022-08-26T20:51:51.485Z,27.78
2022-08-26T20:54:22.126Z,27.52
2022-08-26T20:56:51.469Z,27.01
2022-08-26T20:59:18.924Z,26.76
2022-08-26T21:01:46.883Z,26.58
2022-08-26T21:04:17.919Z,27.30
2022-08-26T21:06:52.300Z,27.65
2022-08-26T21:09:22.032Z,27.51
2022-08-26T21:11:49.995Z,27.43
2022-08-26T21:14:17.677Z,27.44
2022-08-26T21:16:45.731Z,27.53
2022-08-26T21:19:17.536Z,27.74
2022-08-26T21:21:46.266Z,27.78
2022-08-26T21:24:13.720Z,27.69
2022-08-26T21:26:40.721Z,27.64
2022-08-26T21:29:09.828Z,27.55
2022-08-26T21:31:42.304Z,27.60
2022-08-26T21:34:12.867Z,27.90
2022-08-26T21:36:39.924Z,27.87
2022-08-26T21:39:11.239Z,27.80
2022-08-26T21:41:40.181Z,27.85
2022-08-26T21:44:07.024Z,27.25
2022-08-26T21:46:37.232Z,27.12
2022-08-26T21:49:07.424Z,26.91
2022-08-26T21:51:37.760Z,27.04
2022-08-26T21:54:10.550Z,27.14
2022-08-26T21:56:40.853Z,27.31
2022-08-26T21:59:09.055Z,26.97
2022-08-26T22:01:36.572Z,25.48
2022-08-26T22:04:05.343Z,25.61
2022-08-26T22:06:34.915Z,25.72
2022-08-26T22:09:01.662Z,26.13
2022-08-26T22:11:28.845Z,26.32
2022-08-26T22:13:56.896Z,26.54
2022-08-26T22:16:24.998Z,26.63
2022-08-26T22:18:53.379Z,26.56
2022-08-26T22:21:24.271Z,26.73
2022-08-26T22:23:51.420Z,26.82
2022-08-26T22:26:25.359Z,26.56
2022-08-26T22:28:57.471Z,26.51
2022-08-26T22:31:37.008Z,26.66
2022-08-26T22:34:07.994Z,26.68
2022-08-26T22:36:35.403Z,26.63
2022-08-26T22:39:04.758Z,26.45
2022-08-26T22:41:32.678Z,26.42
2022-08-26T22:44:02.604Z,26.65
2022-08-26T22:46:29.556Z,26.61
2022-08-26T22:48:56.543Z,26.61
2022-08-26T22:51:23.477Z,26.62
2022-08-26T22:53:50.360Z,26.06
2022-08-26T22:56:19.050Z,26.27
2022-08-26T22:58:46.068Z,26.20
2022-08-26T23:01:13.748Z,26.26
2022-08-26T23:03:41.350Z,26.39
2022-08-26T23:06:12.308Z,26.37
2022-08-26T23:08:40.391Z,26.43
2022-08-26T23:11:09.390Z,26.38
2022-08-26T23:13:36.521Z,26.25
2022-08-26T23:16:06.965Z,26.36
2022-08-26T23:18:33.975Z,26.34
2022-08-26T23:21:00.808Z,26.42
2022-08-26T23:23:27.800Z,26.37
2022-08-26T23:25:55.759Z,25.06
2022-08-26T23:28:23.031Z,24.56
2022-08-26T23:30:50.299Z,24.43
2022-08-26T23:33:17.068Z,25.24
2022-08-26T23:35:44.013Z,25.54
2022-08-26T23:38:11.181Z,25.78
2022-08-26T23:40:41.301Z,25.97
2022-08-26T23:43:11.383Z,26.13
2022-08-26T23:45:38.746Z,26.10
2022-08-26T23:48:06.490Z,26.13
2022-08-26T23:50:52.294Z,26.31
2022-08-26T23:53:21.902Z,26.28
2022-08-26T23:55:51.904Z,26.15
2022-08-26T23:58:20.866Z,26.16
